sensor_id;sensor_type;location;lat;lon;timestamp;temperature;humidity
74923;HTU21D;64715;44.760;37.678;2023-08-08T00:00:00;23.62;75.02
74923;HTU21D;64715;44.760;37.678;2023-08-08T00:01:01;23.62;74.79
74923;HTU21D;64715;44.760;37.678;2023-08-08T00:02:02;23.64;74.82
74923;HTU21D;64715;44.760;37.678;2023-08-08T00:03:04;23.61;74.67
74923;HTU21D;64715;44.760;37.678;2023-08-08T00:04:05;23.61;74.58
74923;HTU21D;64715;44.760;37.678;2023-08-08T00:05:06;23.61;74.55
74923;HTU21D;64715;44.760;37.678;2023-08-08T00:06:07;23.60;74.32
74923;HTU21D;64715;44.760;37.678;2023-08-08T00:07:08;23.60;74.27
74923;HTU21D;64715;44.760;37.678;2023-08-08T00:08:09;23.61;74.18
74923;HTU21D;64715;44.760;37.678;2023-08-08T00:09:10;23.61;73.96
74923;HTU21D;64715;44.760;37.678;2023-08-08T00:10:11;23.60;73.90
74923;HTU21D;64715;44.760;37.678;2023-08-08T00:11:12;23.62;73.80
74923;HTU21D;64715;44.760;37.678;2023-08-08T00:12:13;23.61;73.63
74923;HTU21D;64715;44.760;37.678;2023-08-08T00:13:14;23.65;73.49
74923;HTU21D;64715;44.760;37.678;2023-08-08T00:14:15;23.66;73.44
74923;HTU21D;64715;44.760;37.678;2023-08-08T00:15:16;23.68;73.12
74923;HTU21D;64715;44.760;37.678;2023-08-08T00:16:17;23.69;73.22
74923;HTU21D;64715;44.760;37.678;2023-08-08T00:17:18;23.70;72.92
74923;HTU21D;64715;44.760;37.678;2023-08-08T00:18:19;23.71;72.81
74923;HTU21D;64715;44.760;37.678;2023-08-08T00:19:20;23.71;72.68
74923;HTU21D;64715;44.760;37.678;2023-08-08T00:20:21;23.72;72.59
74923;HTU21D;64715;44.760;37.678;2023-08-08T00:21:22;23.73;72.52
74923;HTU21D;64715;44.760;37.678;2023-08-08T00:22:23;23.74;72.38
74923;HTU21D;64715;44.760;37.678;2023-08-08T00:23:24;23.73;72.32
74923;HTU21D;64715;44.760;37.678;2023-08-08T00:24:25;23.74;72.16
74923;HTU21D;64715;44.760;37.678;2023-08-08T00:25:25;23.73;72.15
74923;HTU21D;64715;44.760;37.678;2023-08-08T00:26:26;23.74;72.00
74923;HTU21D;64715;44.760;37.678;2023-08-08T00:27:27;23.74;71.92
74923;HTU21D;64715;44.760;37.678;2023-08-08T00:28:28;23.76;71.74
74923;HTU21D;64715;44.760;37.678;2023-08-08T00:29:29;23.76;71.74
74923;HTU21D;64715;44.760;37.678;2023-08-08T00:30:30;23.76;71.58
74923;HTU21D;64715;44.760;37.678;2023-08-08T00:31:31;23.75;71.54
74923;HTU21D;64715;44.760;37.678;2023-08-08T00:32:32;23.75;71.42
74923;HTU21D;64715;44.760;37.678;2023-08-08T00:33:33;23.77;71.36
74923;HTU21D;64715;44.760;37.678;2023-08-08T00:34:34;23.76;71.20
74923;HTU21D;64715;44.760;37.678;2023-08-08T00:35:35;23.77;71.22
74923;HTU21D;64715;44.760;37.678;2023-08-08T00:36:36;23.77;71.14
74923;HTU21D;64715;44.760;37.678;2023-08-08T00:37:37;23.77;71.04
74923;HTU21D;64715;44.760;37.678;2023-08-08T00:38:38;23.76;71.06
74923;HTU21D;64715;44.760;37.678;2023-08-08T00:39:39;23.74;71.00
74923;HTU21D;64715;44.760;37.678;2023-08-08T00:40:43;23.73;70.92
74923;HTU21D;64715;44.760;37.678;2023-08-08T00:41:43;23.71;70.81
74923;HTU21D;64715;44.760;37.678;2023-08-08T00:42:44;23.71;70.74
74923;HTU21D;64715;44.760;37.678;2023-08-08T00:43:45;23.70;70.66
74923;HTU21D;64715;44.760;37.678;2023-08-08T00:44:46;23.68;70.78
74923;HTU21D;64715;44.760;37.678;2023-08-08T00:45:47;23.66;70.68
74923;HTU21D;64715;44.760;37.678;2023-08-08T00:46:48;23.66;70.62
74923;HTU21D;64715;44.760;37.678;2023-08-08T00:47:50;23.64;70.48
74923;HTU21D;64715;44.760;37.678;2023-08-08T00:48:51;23.62;70.55
74923;HTU21D;64715;44.760;37.678;2023-08-08T00:49:54;23.61;70.54
74923;HTU21D;64715;44.760;37.678;2023-08-08T00:50:55;23.59;70.51
74923;HTU21D;64715;44.760;37.678;2023-08-08T00:51:56;23.59;70.61
74923;HTU21D;64715;44.760;37.678;2023-08-08T00:52:57;23.59;70.48
74923;HTU21D;64715;44.760;37.678;2023-08-08T00:53:59;23.59;70.49
74923;HTU21D;64715;44.760;37.678;2023-08-08T00:55:00;23.59;70.45
74923;HTU21D;64715;44.760;37.678;2023-08-08T00:56:02;23.59;70.35
74923;HTU21D;64715;44.760;37.678;2023-08-08T00:57:04;23.58;70.42
74923;HTU21D;64715;44.760;37.678;2023-08-08T00:58:05;23.57;70.27
74923;HTU21D;64715;44.760;37.678;2023-08-08T00:59:07;23.58;70.40
74923;HTU21D;64715;44.760;37.678;2023-08-08T01:00:09;23.56;70.37
74923;HTU21D;64715;44.760;37.678;2023-08-08T01:01:11;23.56;70.35
74923;HTU21D;64715;44.760;37.678;2023-08-08T01:02:12;23.56;70.33
74923;HTU21D;64715;44.760;37.678;2023-08-08T01:03:13;23.56;70.29
74923;HTU21D;64715;44.760;37.678;2023-08-08T01:04:15;23.56;70.26
74923;HTU21D;64715;44.760;37.678;2023-08-08T01:05:17;23.55;70.19
74923;HTU21D;64715;44.760;37.678;2023-08-08T01:06:31;23.54;70.10
74923;HTU21D;64715;44.760;37.678;2023-08-08T01:08:04;23.53;70.17
74923;HTU21D;64715;44.760;37.678;2023-08-08T01:09:14;23.52;70.23
74923;HTU21D;64715;44.760;37.678;2023-08-08T01:10:28;23.50;70.26
74923;HTU21D;64715;44.760;37.678;2023-08-08T01:11:31;23.49;70.36
74923;HTU21D;64715;44.760;37.678;2023-08-08T01:12:42;23.49;70.30
74923;HTU21D;64715;44.760;37.678;2023-08-08T01:13:45;23.46;70.35
74923;HTU21D;64715;44.760;37.678;2023-08-08T01:14:49;23.45;70.36
74923;HTU21D;64715;44.760;37.678;2023-08-08T01:15:51;23.44;70.42
74923;HTU21D;64715;44.760;37.678;2023-08-08T01:16:56;23.44;70.51
74923;HTU21D;64715;44.760;37.678;2023-08-08T01:18:03;23.44;70.52
74923;HTU21D;64715;44.760;37.678;2023-08-08T01:19:06;23.45;70.55
74923;HTU21D;64715;44.760;37.678;2023-08-08T01:20:08;23.43;70.72
74923;HTU21D;64715;44.760;37.678;2023-08-08T01:21:10;23.45;70.64
74923;HTU21D;64715;44.760;37.678;2023-08-08T01:22:29;23.44;70.76
74923;HTU21D;64715;44.760;37.678;2023-08-08T01:24:00;23.45;70.75
74923;HTU21D;64715;44.760;37.678;2023-08-08T01:25:04;23.44;70.87
74923;HTU21D;64715;44.760;37.678;2023-08-08T01:26:06;23.44;70.97
74923;HTU21D;64715;44.760;37.678;2023-08-08T01:27:07;23.46;71.03
74923;HTU21D;64715;44.760;37.678;2023-08-08T01:28:09;23.47;71.08
74923;HTU21D;64715;44.760;37.678;2023-08-08T01:29:10;23.49;71.13
74923;HTU21D;64715;44.760;37.678;2023-08-08T01:30:11;23.50;71.14
74923;HTU21D;64715;44.760;37.678;2023-08-08T01:31:13;23.50;71.19
74923;HTU21D;64715;44.760;37.678;2023-08-08T01:32:15;23.51;71.29
74923;HTU21D;64715;44.760;37.678;2023-08-08T01:33:16;23.52;71.34
74923;HTU21D;64715;44.760;37.678;2023-08-08T01:34:17;23.53;71.36
74923;HTU21D;64715;44.760;37.678;2023-08-08T01:35:19;23.53;71.33
74923;HTU21D;64715;44.760;37.678;2023-08-08T01:36:27;23.53;71.37
74923;HTU21D;64715;44.760;37.678;2023-08-08T01:37:32;23.53;71.48
74923;HTU21D;64715;44.760;37.678;2023-08-08T01:38:42;23.53;71.41
74923;HTU21D;64715;44.760;37.678;2023-08-08T01:39:46;23.54;71.58
74923;HTU21D;64715;44.760;37.678;2023-08-08T01:40:47;23.54;71.47
74923;HTU21D;64715;44.760;37.678;2023-08-08T01:41:49;23.52;71.39
74923;HTU21D;64715;44.760;37.678;2023-08-08T01:42:51;23.51;71.45
74923;HTU21D;64715;44.760;37.678;2023-08-08T01:43:53;23.51;71.48
74923;HTU21D;64715;44.760;37.678;2023-08-08T01:44:55;23.49;71.50
74923;HTU21D;64715;44.760;37.678;2023-08-08T01:45:57;23.49;71.56
74923;HTU21D;64715;44.760;37.678;2023-08-08T01:46:59;23.49;71.61
74923;HTU21D;64715;44.760;37.678;2023-08-08T01:48:00;23.46;71.52
74923;HTU21D;64715;44.760;37.678;2023-08-08T01:49:06;23.44;71.59
74923;HTU21D;64715;44.760;37.678;2023-08-08T01:50:07;23.43;71.65
74923;HTU21D;64715;44.760;37.678;2023-08-08T01:51:09;23.42;71.67
74923;HTU21D;64715;44.760;37.678;2023-08-08T01:52:10;23.40;71.73
74923;HTU21D;64715;44.760;37.678;2023-08-08T01:53:11;23.38;71.73
74923;HTU21D;64715;44.760;37.678;2023-08-08T01:54:12;23.36;71.71
74923;HTU21D;64715;44.760;37.678;2023-08-08T01:55:13;23.35;71.72
74923;HTU21D;64715;44.760;37.678;2023-08-08T01:56:14;23.32;71.73
74923;HTU21D;64715;44.760;37.678;2023-08-08T01:57:15;23.31;71.80
74923;HTU21D;64715;44.760;37.678;2023-08-08T01:58:16;23.29;71.88
74923;HTU21D;64715;44.760;37.678;2023-08-08T01:59:17;23.25;71.92
74923;HTU21D;64715;44.760;37.678;2023-08-08T02:00:19;23.24;72.11
74923;HTU21D;64715;44.760;37.678;2023-08-08T02:01:19;23.22;72.16
74923;HTU21D;64715;44.760;37.678;2023-08-08T02:02:20;23.21;72.19
74923;HTU21D;64715;44.760;37.678;2023-08-08T02:03:21;23.18;72.31
74923;HTU21D;64715;44.760;37.678;2023-08-08T02:04:22;23.16;72.32
74923;HTU21D;64715;44.760;37.678;2023-08-08T02:05:23;23.15;72.40
74923;HTU21D;64715;44.760;37.678;2023-08-08T02:06:24;23.14;72.47
74923;HTU21D;64715;44.760;37.678;2023-08-08T02:07:25;23.12;72.61
74923;HTU21D;64715;44.760;37.678;2023-08-08T02:08:26;23.12;72.58
74923;HTU21D;64715;44.760;37.678;2023-08-08T02:09:27;23.11;72.69
74923;HTU21D;64715;44.760;37.678;2023-08-08T02:10:28;23.09;72.70
74923;HTU21D;64715;44.760;37.678;2023-08-08T02:11:29;23.08;72.59
74923;HTU21D;64715;44.760;37.678;2023-08-08T02:12:30;23.07;72.77
74923;HTU21D;64715;44.760;37.678;2023-08-08T02:13:32;23.05;72.77
74923;HTU21D;64715;44.760;37.678;2023-08-08T02:14:33;23.03;72.70
74923;HTU21D;64715;44.760;37.678;2023-08-08T02:15:34;23.01;72.76
74923;HTU21D;64715;44.760;37.678;2023-08-08T02:16:35;23.00;72.92
74923;HTU21D;64715;44.760;37.678;2023-08-08T02:17:38;22.98;72.88
74923;HTU21D;64715;44.760;37.678;2023-08-08T02:18:39;22.97;72.87
74923;HTU21D;64715;44.760;37.678;2023-08-08T02:19:41;22.97;73.03
74923;HTU21D;64715;44.760;37.678;2023-08-08T02:20:42;22.95;72.99
74923;HTU21D;64715;44.760;37.678;2023-08-08T02:21:43;22.93;73.10
74923;HTU21D;64715;44.760;37.678;2023-08-08T02:22:44;22.92;73.09
74923;HTU21D;64715;44.760;37.678;2023-08-08T02:23:45;22.90;73.16
74923;HTU21D;64715;44.760;37.678;2023-08-08T02:24:46;22.88;73.23
74923;HTU21D;64715;44.760;37.678;2023-08-08T02:25:47;22.87;73.25
74923;HTU21D;64715;44.760;37.678;2023-08-08T02:26:48;22.86;73.32
74923;HTU21D;64715;44.760;37.678;2023-08-08T02:27:49;22.85;73.48
74923;HTU21D;64715;44.760;37.678;2023-08-08T02:28:50;22.84;73.35
74923;HTU21D;64715;44.760;37.678;2023-08-08T02:29:51;22.84;73.54
74923;HTU21D;64715;44.760;37.678;2023-08-08T02:30:53;22.84;73.54
74923;HTU21D;64715;44.760;37.678;2023-08-08T02:31:54;22.83;73.60
74923;HTU21D;64715;44.760;37.678;2023-08-08T02:32:54;22.82;73.73
74923;HTU21D;64715;44.760;37.678;2023-08-08T02:33:55;22.83;73.75
74923;HTU21D;64715;44.760;37.678;2023-08-08T02:34:56;22.83;73.72
74923;HTU21D;64715;44.760;37.678;2023-08-08T02:35:58;22.84;73.77
74923;HTU21D;64715;44.760;37.678;2023-08-08T02:36:59;22.84;73.84
74923;HTU21D;64715;44.760;37.678;2023-08-08T02:38:00;22.84;73.95
74923;HTU21D;64715;44.760;37.678;2023-08-08T02:39:01;22.86;73.84
74923;HTU21D;64715;44.760;37.678;2023-08-08T02:40:05;22.87;73.94
74923;HTU21D;64715;44.760;37.678;2023-08-08T02:41:06;22.91;74.10
74923;HTU21D;64715;44.760;37.678;2023-08-08T02:42:07;22.93;73.99
74923;HTU21D;64715;44.760;37.678;2023-08-08T02:43:08;22.97;73.97
74923;HTU21D;64715;44.760;37.678;2023-08-08T02:44:11;22.99;74.02
74923;HTU21D;64715;44.760;37.678;2023-08-08T02:45:12;23.03;74.22
74923;HTU21D;64715;44.760;37.678;2023-08-08T02:46:13;23.07;74.20
74923;HTU21D;64715;44.760;37.678;2023-08-08T02:47:14;23.16;74.33
74923;HTU21D;64715;44.760;37.678;2023-08-08T02:48:16;23.25;74.32
74923;HTU21D;64715;44.760;37.678;2023-08-08T02:49:17;23.35;74.43
74923;HTU21D;64715;44.760;37.678;2023-08-08T02:50:17;23.47;74.33
74923;HTU21D;64715;44.760;37.678;2023-08-08T02:51:18;23.61;74.22
74923;HTU21D;64715;44.760;37.678;2023-08-08T02:52:19;23.75;74.15
74923;HTU21D;64715;44.760;37.678;2023-08-08T02:53:20;23.90;73.89
74923;HTU21D;64715;44.760;37.678;2023-08-08T02:54:22;24.09;73.78
74923;HTU21D;64715;44.760;37.678;2023-08-08T02:55:23;24.25;73.44
74923;HTU21D;64715;44.760;37.678;2023-08-08T02:56:25;24.44;72.98
74923;HTU21D;64715;44.760;37.678;2023-08-08T02:57:28;24.61;72.82
74923;HTU21D;64715;44.760;37.678;2023-08-08T02:58:29;24.79;72.32
74923;HTU21D;64715;44.760;37.678;2023-08-08T02:59:32;25.01;72.08
74923;HTU21D;64715;44.760;37.678;2023-08-08T03:00:36;25.22;71.69
74923;HTU21D;64715;44.760;37.678;2023-08-08T03:01:38;25.42;71.15
74923;HTU21D;64715;44.760;37.678;2023-08-08T03:02:46;25.66;70.90
74923;HTU21D;64715;44.760;37.678;2023-08-08T03:03:47;25.86;70.29
74923;HTU21D;64715;44.760;37.678;2023-08-08T03:04:49;26.08;69.83
74923;HTU21D;64715;44.760;37.678;2023-08-08T03:05:50;26.34;69.47
74923;HTU21D;64715;44.760;37.678;2023-08-08T03:06:53;26.58;68.97
74923;HTU21D;64715;44.760;37.678;2023-08-08T03:07:54;26.83;68.46
74923;HTU21D;64715;44.760;37.678;2023-08-08T03:08:56;27.10;68.00
74923;HTU21D;64715;44.760;37.678;2023-08-08T03:09:57;27.36;67.37
74923;HTU21D;64715;44.760;37.678;2023-08-08T03:10:58;27.61;66.71
74923;HTU21D;64715;44.760;37.678;2023-08-08T03:11:59;27.87;66.24
74923;HTU21D;64715;44.760;37.678;2023-08-08T03:13:00;28.14;65.47
74923;HTU21D;64715;44.760;37.678;2023-08-08T03:14:02;28.39;64.75
74923;HTU21D;64715;44.760;37.678;2023-08-08T03:15:03;28.65;64.08
74923;HTU21D;64715;44.760;37.678;2023-08-08T03:16:05;28.88;63.22
74923;HTU21D;64715;44.760;37.678;2023-08-08T03:17:06;29.11;62.53
74923;HTU21D;64715;44.760;37.678;2023-08-08T03:18:07;29.33;62.06
74923;HTU21D;64715;44.760;37.678;2023-08-08T03:19:08;29.56;61.39
74923;HTU21D;64715;44.760;37.678;2023-08-08T03:20:11;29.79;60.78
74923;HTU21D;64715;44.760;37.678;2023-08-08T03:21:12;30.02;60.16
74923;HTU21D;64715;44.760;37.678;2023-08-08T03:22:14;30.23;59.60
74923;HTU21D;64715;44.760;37.678;2023-08-08T03:23:15;30.45;58.85
74923;HTU21D;64715;44.760;37.678;2023-08-08T03:24:16;30.66;58.46
74923;HTU21D;64715;44.760;37.678;2023-08-08T03:25:17;30.92;57.95
74923;HTU21D;64715;44.760;37.678;2023-08-08T03:26:18;31.16;57.25
74923;HTU21D;64715;44.760;37.678;2023-08-08T03:27:20;31.39;56.68
74923;HTU21D;64715;44.760;37.678;2023-08-08T03:28:25;31.66;55.98
74923;HTU21D;64715;44.760;37.678;2023-08-08T03:29:27;31.88;55.42
74923;HTU21D;64715;44.760;37.678;2023-08-08T03:30:30;32.13;54.72
74923;HTU21D;64715;44.760;37.678;2023-08-08T03:31:31;32.34;54.15
74923;HTU21D;64715;44.760;37.678;2023-08-08T03:32:35;32.57;53.64
74923;HTU21D;64715;44.760;37.678;2023-08-08T03:33:36;32.79;53.04
74923;HTU21D;64715;44.760;37.678;2023-08-08T03:34:38;33.01;52.45
74923;HTU21D;64715;44.760;37.678;2023-08-08T03:35:39;33.18;51.99
74923;HTU21D;64715;44.760;37.678;2023-08-08T03:36:41;33.36;51.46
74923;HTU21D;64715;44.760;37.678;2023-08-08T03:37:43;33.57;50.83
74923;HTU21D;64715;44.760;37.678;2023-08-08T03:38:44;33.72;50.23
74923;HTU21D;64715;44.760;37.678;2023-08-08T03:39:46;33.88;49.63
74923;HTU21D;64715;44.760;37.678;2023-08-08T03:40:47;34.02;49.29
74923;HTU21D;64715;44.760;37.678;2023-08-08T03:41:48;34.16;48.96
74923;HTU21D;64715;44.760;37.678;2023-08-08T03:42:49;34.34;48.57
74923;HTU21D;64715;44.760;37.678;2023-08-08T03:43:50;34.51;47.98
74923;HTU21D;64715;44.760;37.678;2023-08-08T03:44:52;34.66;47.55
74923;HTU21D;64715;44.760;37.678;2023-08-08T03:45:53;34.80;47.18
74923;HTU21D;64715;44.760;37.678;2023-08-08T03:46:54;34.93;46.95
74923;HTU21D;64715;44.760;37.678;2023-08-08T03:47:55;35.09;46.43
74923;HTU21D;64715;44.760;37.678;2023-08-08T03:48:56;35.25;46.17
74923;HTU21D;64715;44.760;37.678;2023-08-08T03:49:57;35.39;45.69
74923;HTU21D;64715;44.760;37.678;2023-08-08T03:50:58;35.56;45.34
74923;HTU21D;64715;44.760;37.678;2023-08-08T03:51:59;35.74;45.07
74923;HTU21D;64715;44.760;37.678;2023-08-08T03:53:01;35.93;44.63
74923;HTU21D;64715;44.760;37.678;2023-08-08T03:54:03;36.11;44.30
74923;HTU21D;64715;44.760;37.678;2023-08-08T03:55:04;36.29;43.89
74923;HTU21D;64715;44.760;37.678;2023-08-08T03:56:05;36.45;43.42
74923;HTU21D;64715;44.760;37.678;2023-08-08T03:57:08;36.57;42.97
74923;HTU21D;64715;44.760;37.678;2023-08-08T03:58:09;36.66;42.72
74923;HTU21D;64715;44.760;37.678;2023-08-08T03:59:10;36.71;42.50
74923;HTU21D;64715;44.760;37.678;2023-08-08T04:00:11;36.80;42.06
74923;HTU21D;64715;44.760;37.678;2023-08-08T04:01:15;36.81;41.81
74923;HTU21D;64715;44.760;37.678;2023-08-08T04:02:16;36.85;41.49
74923;HTU21D;64715;44.760;37.678;2023-08-08T04:03:18;36.90;41.39
74923;HTU21D;64715;44.760;37.678;2023-08-08T04:04:19;36.98;41.12
74923;HTU21D;64715;44.760;37.678;2023-08-08T04:05:20;37.05;40.73
74923;HTU21D;64715;44.760;37.678;2023-08-08T04:06:21;37.05;40.54
74923;HTU21D;64715;44.760;37.678;2023-08-08T04:07:22;37.02;40.42
74923;HTU21D;64715;44.760;37.678;2023-08-08T04:08:23;37.00;40.48
74923;HTU21D;64715;44.760;37.678;2023-08-08T04:09:24;36.95;40.49
74923;HTU21D;64715;44.760;37.678;2023-08-08T04:10:25;36.91;40.50
74923;HTU21D;64715;44.760;37.678;2023-08-08T04:11:26;36.88;40.49
74923;HTU21D;64715;44.760;37.678;2023-08-08T04:12:27;36.80;40.51
74923;HTU21D;64715;44.760;37.678;2023-08-08T04:13:28;36.74;40.73
74923;HTU21D;64715;44.760;37.678;2023-08-08T04:14:29;36.72;40.70
74923;HTU21D;64715;44.760;37.678;2023-08-08T04:15:30;36.69;40.64
74923;HTU21D;64715;44.760;37.678;2023-08-08T04:16:31;36.66;40.48
74923;HTU21D;64715;44.760;37.678;2023-08-08T04:17:32;36.61;40.70
74923;HTU21D;64715;44.760;37.678;2023-08-08T04:18:33;36.60;40.81
74923;HTU21D;64715;44.760;37.678;2023-08-08T04:19:34;36.63;40.68
74923;HTU21D;64715;44.760;37.678;2023-08-08T04:20:35;36.66;40.59
74923;HTU21D;64715;44.760;37.678;2023-08-08T04:21:36;36.60;40.45
74923;HTU21D;64715;44.760;37.678;2023-08-08T04:22:37;36.57;40.43
74923;HTU21D;64715;44.760;37.678;2023-08-08T04:23:38;36.58;40.49
74923;HTU21D;64715;44.760;37.678;2023-08-08T04:24:39;36.59;40.58
74923;HTU21D;64715;44.760;37.678;2023-08-08T04:25:40;36.63;40.32
74923;HTU21D;64715;44.760;37.678;2023-08-08T04:26:41;36.68;40.22
74923;HTU21D;64715;44.760;37.678;2023-08-08T04:27:41;36.73;40.26
74923;HTU21D;64715;44.760;37.678;2023-08-08T04:28:42;36.77;39.98
74923;HTU21D;64715;44.760;37.678;2023-08-08T04:29:43;36.80;39.84
74923;HTU21D;64715;44.760;37.678;2023-08-08T04:30:44;36.81;39.80
74923;HTU21D;64715;44.760;37.678;2023-08-08T04:31:45;36.84;39.51
74923;HTU21D;64715;44.760;37.678;2023-08-08T04:32:46;36.82;39.52
74923;HTU21D;64715;44.760;37.678;2023-08-08T04:33:47;36.81;39.59
74923;HTU21D;64715;44.760;37.678;2023-08-08T04:34:48;36.81;39.43
74923;HTU21D;64715;44.760;37.678;2023-08-08T04:35:49;36.82;39.57
74923;HTU21D;64715;44.760;37.678;2023-08-08T04:36:50;36.85;39.42
74923;HTU21D;64715;44.760;37.678;2023-08-08T04:37:51;36.86;39.17
74923;HTU21D;64715;44.760;37.678;2023-08-08T04:38:52;36.84;39.15
74923;HTU21D;64715;44.760;37.678;2023-08-08T04:39:53;36.80;39.36
74923;HTU21D;64715;44.760;37.678;2023-08-08T04:40:54;36.81;39.40
74923;HTU21D;64715;44.760;37.678;2023-08-08T04:41:55;36.81;39.20
74923;HTU21D;64715;44.760;37.678;2023-08-08T04:42:56;36.75;39.30
74923;HTU21D;64715;44.760;37.678;2023-08-08T04:43:57;36.73;39.30
74923;HTU21D;64715;44.760;37.678;2023-08-08T04:44:58;36.71;39.33
74923;HTU21D;64715;44.760;37.678;2023-08-08T04:45:58;36.66;39.41
74923;HTU21D;64715;44.760;37.678;2023-08-08T04:46:59;36.63;39.48
74923;HTU21D;64715;44.760;37.678;2023-08-08T04:48:00;36.66;39.53
74923;HTU21D;64715;44.760;37.678;2023-08-08T04:49:01;36.74;39.63
74923;HTU21D;64715;44.760;37.678;2023-08-08T04:50:02;36.80;39.23
74923;HTU21D;64715;44.760;37.678;2023-08-08T04:51:07;36.84;39.27
74923;HTU21D;64715;44.760;37.678;2023-08-08T04:52:08;36.90;39.28
74923;HTU21D;64715;44.760;37.678;2023-08-08T04:53:09;36.96;38.89
74923;HTU21D;64715;44.760;37.678;2023-08-08T04:54:10;36.95;38.99
74923;HTU21D;64715;44.760;37.678;2023-08-08T04:55:11;36.99;38.96
74923;HTU21D;64715;44.760;37.678;2023-08-08T04:56:12;37.05;38.84
74923;HTU21D;64715;44.760;37.678;2023-08-08T04:57:13;37.04;38.78
74923;HTU21D;64715;44.760;37.678;2023-08-08T04:58:14;37.04;38.82
74923;HTU21D;64715;44.760;37.678;2023-08-08T04:59:15;37.08;38.78
74923;HTU21D;64715;44.760;37.678;2023-08-08T05:00:16;37.16;38.62
74923;HTU21D;64715;44.760;37.678;2023-08-08T05:01:17;37.23;38.45
74923;HTU21D;64715;44.760;37.678;2023-08-08T05:02:20;37.28;38.30
74923;HTU21D;64715;44.760;37.678;2023-08-08T05:03:21;37.29;38.07
74923;HTU21D;64715;44.760;37.678;2023-08-08T05:04:22;37.31;38.15
74923;HTU21D;64715;44.760;37.678;2023-08-08T05:05:23;37.32;37.98
74923;HTU21D;64715;44.760;37.678;2023-08-08T05:06:24;37.36;37.78
74923;HTU21D;64715;44.760;37.678;2023-08-08T05:07:25;37.40;37.58
74923;HTU21D;64715;44.760;37.678;2023-08-08T05:08:26;37.40;37.64
74923;HTU21D;64715;44.760;37.678;2023-08-08T05:09:27;37.38;37.46
74923;HTU21D;64715;44.760;37.678;2023-08-08T05:10:28;37.41;37.40
74923;HTU21D;64715;44.760;37.678;2023-08-08T05:11:29;37.38;37.34
74923;HTU21D;64715;44.760;37.678;2023-08-08T05:12:30;37.35;37.46
74923;HTU21D;64715;44.760;37.678;2023-08-08T05:13:31;37.31;37.25
74923;HTU21D;64715;44.760;37.678;2023-08-08T05:14:32;37.30;37.37
74923;HTU21D;64715;44.760;37.678;2023-08-08T05:15:32;37.27;37.23
74923;HTU21D;64715;44.760;37.678;2023-08-08T05:16:33;37.21;37.22
74923;HTU21D;64715;44.760;37.678;2023-08-08T05:17:34;37.19;37.40
74923;HTU21D;64715;44.760;37.678;2023-08-08T05:18:35;37.23;37.45
74923;HTU21D;64715;44.760;37.678;2023-08-08T05:19:37;37.31;37.50
74923;HTU21D;64715;44.760;37.678;2023-08-08T05:20:38;37.38;37.18
74923;HTU21D;64715;44.760;37.678;2023-08-08T05:21:39;37.43;37.11
74923;HTU21D;64715;44.760;37.678;2023-08-08T05:22:40;37.46;37.09
74923;HTU21D;64715;44.760;37.678;2023-08-08T05:23:41;37.49;36.99
74923;HTU21D;64715;44.760;37.678;2023-08-08T05:24:42;37.49;37.01
74923;HTU21D;64715;44.760;37.678;2023-08-08T05:25:43;37.51;36.84
74923;HTU21D;64715;44.760;37.678;2023-08-08T05:26:44;37.55;36.82
74923;HTU21D;64715;44.760;37.678;2023-08-08T05:27:45;37.56;36.76
74923;HTU21D;64715;44.760;37.678;2023-08-08T05:28:45;37.58;36.76
74923;HTU21D;64715;44.760;37.678;2023-08-08T05:29:46;37.58;36.62
74923;HTU21D;64715;44.760;37.678;2023-08-08T05:30:47;37.52;36.60
74923;HTU21D;64715;44.760;37.678;2023-08-08T05:31:48;37.45;36.73
74923;HTU21D;64715;44.760;37.678;2023-08-08T05:32:49;37.38;36.88
74923;HTU21D;64715;44.760;37.678;2023-08-08T05:33:50;37.37;36.83
74923;HTU21D;64715;44.760;37.678;2023-08-08T05:34:51;37.33;36.94
74923;HTU21D;64715;44.760;37.678;2023-08-08T05:35:52;37.36;36.85
74923;HTU21D;64715;44.760;37.678;2023-08-08T05:36:53;37.36;36.66
74923;HTU21D;64715;44.760;37.678;2023-08-08T05:37:54;37.35;36.85
74923;HTU21D;64715;44.760;37.678;2023-08-08T05:38:55;37.42;36.76
74923;HTU21D;64715;44.760;37.678;2023-08-08T05:39:56;37.45;36.62
74923;HTU21D;64715;44.760;37.678;2023-08-08T05:40:57;37.46;36.55
74923;HTU21D;64715;44.760;37.678;2023-08-08T05:41:57;37.41;36.46
74923;HTU21D;64715;44.760;37.678;2023-08-08T05:42:58;37.32;36.49
74923;HTU21D;64715;44.760;37.678;2023-08-08T05:43:59;37.20;36.65
74923;HTU21D;64715;44.760;37.678;2023-08-08T05:45:00;37.07;36.92
74923;HTU21D;64715;44.760;37.678;2023-08-08T05:46:01;36.92;37.13
74923;HTU21D;64715;44.760;37.678;2023-08-08T05:47:02;36.82;37.39
74923;HTU21D;64715;44.760;37.678;2023-08-08T05:48:03;36.71;37.62
74923;HTU21D;64715;44.760;37.678;2023-08-08T05:49:05;36.60;37.91
74923;HTU21D;64715;44.760;37.678;2023-08-08T05:50:07;36.47;38.22
74923;HTU21D;64715;44.760;37.678;2023-08-08T05:51:08;36.31;38.53
74923;HTU21D;64715;44.760;37.678;2023-08-08T05:52:10;36.16;38.77
74923;HTU21D;64715;44.760;37.678;2023-08-08T05:53:11;36.02;39.02
74923;HTU21D;64715;44.760;37.678;2023-08-08T05:54:12;35.92;39.39
74923;HTU21D;64715;44.760;37.678;2023-08-08T05:55:13;35.78;39.74
74923;HTU21D;64715;44.760;37.678;2023-08-08T05:56:14;35.68;40.16
74923;HTU21D;64715;44.760;37.678;2023-08-08T05:57:15;35.63;40.40
74923;HTU21D;64715;44.760;37.678;2023-08-08T05:58:16;35.58;40.55
74923;HTU21D;64715;44.760;37.678;2023-08-08T05:59:17;35.50;40.77
74923;HTU21D;64715;44.760;37.678;2023-08-08T06:00:18;35.41;40.73
74923;HTU21D;64715;44.760;37.678;2023-08-08T06:01:20;35.33;40.84
74923;HTU21D;64715;44.760;37.678;2023-08-08T06:02:21;35.26;41.02
74923;HTU21D;64715;44.760;37.678;2023-08-08T06:03:22;35.19;41.13
74923;HTU21D;64715;44.760;37.678;2023-08-08T06:04:23;35.09;41.10
74923;HTU21D;64715;44.760;37.678;2023-08-08T06:05:24;34.99;41.21
74923;HTU21D;64715;44.760;37.678;2023-08-08T06:06:26;34.94;41.29
74923;HTU21D;64715;44.760;37.678;2023-08-08T06:07:27;34.89;41.44
74923;HTU21D;64715;44.760;37.678;2023-08-08T06:08:27;34.88;41.28
74923;HTU21D;64715;44.760;37.678;2023-08-08T06:09:28;34.86;41.39
74923;HTU21D;64715;44.760;37.678;2023-08-08T06:10:29;34.86;41.38
74923;HTU21D;64715;44.760;37.678;2023-08-08T06:11:30;34.84;40.98
74923;HTU21D;64715;44.760;37.678;2023-08-08T06:12:31;34.83;40.99
74923;HTU21D;64715;44.760;37.678;2023-08-08T06:13:32;34.79;40.88
74923;HTU21D;64715;44.760;37.678;2023-08-08T06:14:33;34.76;40.82
74923;HTU21D;64715;44.760;37.678;2023-08-08T06:15:34;34.73;40.78
74923;HTU21D;64715;44.760;37.678;2023-08-08T06:16:35;34.62;40.88
74923;HTU21D;64715;44.760;37.678;2023-08-08T06:17:36;34.54;41.06